createdAt,value
2022-10-19T00:01:26.054Z,23.67
2022-10-19T00:03:56.032Z,20.13
2022-10-19T00:06:32.226Z,17.53
2022-10-19T00:09:03.640Z,23.90
2022-10-19T00:11:32.323Z,21.43
2022-10-19T00:14:00.198Z,18.47
2022-10-19T00:16:30.872Z,15.63
2022-10-19T00:19:00.968Z,15.03
2022-10-19T00:21:28.333Z,18.60
2022-10-19T00:23:55.770Z,15.93
2022-10-19T00:26:23.332Z,15.07
2022-10-19T00:28:54.352Z,20.30
2022-10-19T00:31:22.140Z,16.97
2022-10-19T00:33:49.530Z,21.53
2022-10-19T00:36:29.022Z,24.47
2022-10-19T00:38:57.188Z,17.43
2022-10-19T00:41:26.759Z,15.23
2022-10-19T00:44:01.550Z,19.27
2022-10-19T00:46:32.270Z,22.70
2022-10-19T00:49:09.884Z,14.63
2022-10-19T00:51:42.165Z,19.40
2022-10-19T00:54:10.275Z,22.53
2022-10-19T00:56:40.214Z,20.00
2022-10-19T00:59:09.063Z,18.43
2022-10-19T01:01:36.688Z,18.53
2022-10-19T01:04:04.794Z,23.20
2022-10-19T01:06:32.910Z,16.17
2022-10-19T01:09:00.204Z,15.23
2022-10-19T01:11:57.041Z,14.07
2022-10-19T01:14:48.675Z,17.33
2022-10-19T01:17:59.983Z,15.67
2022-10-19T01:20:48.439Z,16.53
2022-10-19T01:23:34.293Z,15.13
2022-10-19T01:26:04.609Z,13.83
2022-10-19T01:29:06.534Z,11.00
2022-10-19T01:31:36.887Z,16.13
2022-10-19T01:34:16.417Z,13.17
2022-10-19T01:37:08.167Z,13.63
2022-10-19T01:39:53.506Z,10.87
2022-10-19T01:42:36.009Z,16.70
2022-10-19T01:45:23.750Z,16.17
2022-10-19T01:48:06.871Z,14.90
2022-10-19T01:50:41.165Z,12.50
2022-10-19T01:53:10.944Z,14.70
2022-10-19T01:55:42.841Z,16.97
2022-10-19T01:58:14.411Z,11.57
2022-10-19T02:00:44.192Z,11.93
2022-10-19T02:03:13.134Z,14.73
2022-10-19T02:05:41.772Z,19.83
2022-10-19T02:08:16.922Z,11.97
2022-10-19T02:10:45.742Z,11.10
2022-10-19T02:13:15.644Z,15.10
2022-10-19T02:15:47.511Z,13.20
2022-10-19T02:18:19.727Z,16.20
2022-10-19T02:20:47.217Z,15.67
2022-10-19T02:23:18.684Z,11.27
2022-10-19T02:25:45.908Z,14.20
2022-10-19T02:28:13.364Z,16.03
2022-10-19T02:30:40.602Z,10.00
2022-10-19T02:33:08.018Z,12.47
2022-10-19T02:35:35.238Z,13.77
2022-10-19T02:38:04.609Z,14.20
2022-10-19T02:40:36.577Z,12.83
2022-10-19T02:43:13.001Z,18.83
2022-10-19T02:46:06.571Z,14.33
2022-10-19T02:48:35.426Z,12.53
2022-10-19T02:51:02.603Z,9.13
2022-10-19T02:53:30.100Z,13.43
2022-10-19T02:55:57.294Z,13.97
2022-10-19T02:58:24.671Z,15.97
2022-10-19T03:00:51.849Z,11.10
2022-10-19T03:03:19.156Z,11.13
2022-10-19T03:05:46.229Z,14.20
2022-10-19T03:08:13.570Z,11.17
2022-10-19T03:10:40.640Z,8.60
2022-10-19T03:13:07.923Z,12.77
2022-10-19T03:15:35.116Z,22.43
2022-10-19T03:18:02.550Z,14.33
2022-10-19T03:20:29.599Z,11.60
2022-10-19T03:22:56.903Z,17.60
2022-10-19T03:25:24.013Z,19.47
2022-10-19T03:27:53.778Z,16.97
2022-10-19T03:30:20.908Z,14.83
2022-10-19T03:32:48.305Z,8.17
2022-10-19T03:35:15.426Z,17.33
2022-10-19T03:37:42.695Z,12.00
2022-10-19T03:40:10.157Z,11.07
2022-10-19T03:42:37.420Z,19.67
2022-10-19T03:45:05.097Z,13.33
2022-10-19T03:47:32.692Z,15.37
2022-10-19T03:50:00.025Z,19.33
2022-10-19T03:52:27.317Z,11.90
2022-10-19T03:54:54.560Z,14.17
2022-10-19T03:57:21.887Z,17.87
2022-10-19T03:59:49.670Z,13.63
2022-10-19T04:02:16.927Z,12.97
2022-10-19T04:04:44.001Z,12.97
2022-10-19T04:07:11.437Z,14.30
2022-10-19T04:09:39.591Z,12.83
2022-10-19T04:12:06.947Z,11.23
2022-10-19T04:14:52.596Z,12.13
2022-10-19T04:17:22.254Z,7.90
2022-10-19T04:19:49.792Z,12.37
2022-10-19T04:22:17.139Z,7.87
2022-10-19T04:24:44.293Z,15.67
2022-10-19T04:27:11.629Z,9.13
2022-10-19T04:29:38.713Z,10.97
2022-10-19T04:32:06.212Z,13.57
2022-10-19T04:34:35.275Z,21.07
2022-10-19T04:37:05.112Z,14.27
2022-10-19T04:39:32.346Z,10.30
2022-10-19T04:41:59.809Z,15.90
2022-10-19T04:44:26.931Z,9.37
2022-10-19T04:46:54.681Z,14.67
2022-10-19T04:49:21.801Z,13.67
2022-10-19T04:51:49.194Z,10.60
2022-10-19T04:54:16.449Z,12.13
2022-10-19T04:56:43.785Z,9.47
2022-10-19T04:59:10.959Z,11.67
2022-10-19T05:01:40.413Z,9.53
2022-10-19T05:04:10.897Z,21.43
2022-10-19T05:06:38.584Z,12.13
2022-10-19T05:09:05.730Z,15.53
2022-10-19T05:11:33.174Z,16.33
2022-10-19T05:14:00.353Z,18.83
2022-10-19T05:16:27.755Z,10.73
2022-10-19T05:18:56.859Z,16.67
2022-10-19T05:21:24.763Z,10.20
2022-10-19T05:23:53.470Z,15.30
2022-10-19T05:26:23.103Z,11.33
2022-10-19T05:28:56.765Z,13.73
2022-10-19T05:31:28.006Z,20.17
2022-10-19T05:33:58.590Z,14.40
2022-10-19T05:36:28.735Z,18.63
2022-10-19T05:38:57.586Z,14.77
2022-10-19T05:41:26.086Z,21.27
2022-10-19T05:43:55.860Z,11.70
2022-10-19T05:46:23.526Z,11.40
2022-10-19T05:48:50.754Z,10.47
2022-10-19T05:51:20.054Z,11.43
2022-10-19T05:53:47.627Z,13.97
2022-10-19T05:56:20.055Z,11.63
2022-10-19T05:58:47.665Z,15.50
2022-10-19T06:01:16.047Z,18.40
2022-10-19T06:03:43.224Z,12.57
2022-10-19T06:06:10.945Z,11.30
2022-10-19T06:08:39.236Z,18.30
2022-10-19T06:11:09.095Z,16.67
2022-10-19T06:13:37.037Z,23.30
2022-10-19T06:16:05.727Z,21.17
2022-10-19T06:18:34.030Z,14.70
2022-10-19T06:21:06.668Z,28.57
2022-10-19T06:23:34.567Z,13.17
2022-10-19T06:26:10.868Z,9.73
2022-10-19T06:28:39.770Z,15.30
2022-10-19T06:31:09.304Z,10.67
2022-10-19T06:33:36.873Z,16.10
2022-10-19T06:36:13.851Z,12.53
2022-10-19T06:38:42.360Z,12.93
2022-10-19T06:41:10.920Z,13.07
2022-10-19T06:43:38.713Z,22.03
2022-10-19T06:46:17.528Z,12.60
2022-10-19T06:48:44.854Z,14.17
2022-10-19T06:51:13.690Z,12.03
2022-10-19T06:53:40.895Z,13.83
2022-10-19T06:56:08.497Z,12.40
2022-10-19T06:58:39.900Z,20.10
2022-10-19T07:01:09.048Z,15.67
2022-10-19T07:03:37.030Z,17.17
2022-10-19T07:06:10.740Z,20.97
2022-10-19T07:08:39.571Z,13.17
2022-10-19T07:11:10.585Z,16.03
2022-10-19T07:13:38.024Z,14.60
2022-10-19T07:16:07.164Z,15.20
2022-10-19T07:18:36.198Z,18.30
2022-10-19T07:21:07.065Z,14.37
2022-10-19T07:23:37.008Z,18.50
2022-10-19T07:26:12.197Z,21.13
2022-10-19T07:28:41.643Z,17.73
2022-10-19T07:31:12.497Z,14.50
2022-10-19T07:33:39.947Z,13.97
2022-10-19T07:36:09.612Z,12.00
2022-10-19T07:38:37.361Z,12.80
2022-10-19T07:41:07.969Z,15.87
2022-10-19T07:43:35.642Z,14.17
2022-10-19T07:46:06.362Z,13.43
2022-10-19T07:48:35.168Z,18.80
2022-10-19T07:51:05.898Z,15.77
2022-10-19T07:53:34.434Z,14.97
2022-10-19T07:56:10.603Z,17.63
2022-10-19T07:58:38.633Z,13.53
2022-10-19T08:01:08.691Z,18.87
2022-10-19T08:04:31.648Z,15.97
2022-10-19T08:06:24.715Z,14.27
2022-10-19T08:08:53.356Z,12.13
2022-10-19T08:11:22.537Z,13.87
2022-10-19T08:13:50.081Z,11.27
2022-10-19T08:16:26.145Z,12.40
2022-10-19T08:18:57.562Z,11.60
2022-10-19T08:21:26.636Z,9.83
2022-10-19T08:23:54.718Z,13.17
2022-10-19T08:26:22.451Z,24.90
2022-10-19T08:28:49.743Z,25.03
2022-10-19T08:31:20.590Z,18.20
2022-10-19T08:33:50.149Z,15.97
2022-10-19T08:36:20.118Z,27.07
2022-10-19T08:38:50.135Z,19.03
2022-10-19T08:41:42.569Z,16.00
2022-10-19T08:44:22.185Z,7.87
2022-10-19T08:46:56.849Z,11.63
2022-10-19T08:49:27.035Z,15.17
2022-10-19T08:52:24.450Z,14.80
2022-10-19T08:55:04.809Z,4.70
2022-10-19T08:57:54.252Z,7.03
2022-10-19T09:03:37.667Z,8.02
2022-10-19T09:06:41.925Z,6.20
2022-10-19T09:09:13.858Z,9.18
2022-10-19T09:11:47.475Z,2.13
2022-10-19T09:14:40.945Z,5.32
2022-10-19T09:17:14.234Z,4.35
2022-10-19T09:19:41.679Z,4.40
2022-10-19T09:22:15.935Z,4.07
2022-10-19T09:24:57.416Z,3.88
2022-10-19T09:27:27.143Z,3.20
2022-10-19T09:30:02.656Z,1.95
2022-10-19T09:32:35.135Z,1.77
2022-10-19T09:35:33.710Z,3.08
2022-10-19T09:38:01.306Z,2.90
2022-10-19T09:40:30.667Z,30.80
2022-10-19T09:42:59.299Z,14.07
2022-10-19T09:45:40.758Z,3.97
2022-10-19T09:48:27.805Z,2.67
2022-10-19T09:50:59.619Z,1.60
2022-10-19T09:53:28.211Z,5.78
2022-10-19T09:56:04.966Z,2.90
2022-10-19T09:58:33.315Z,4.75
2022-10-19T10:01:03.068Z,7.25
2022-10-19T10:03:43.760Z,2.67
2022-10-19T10:06:15.866Z,3.50
2022-10-19T10:08:58.019Z,4.20
2022-10-19T10:11:30.529Z,5.05
2022-10-19T10:14:01.006Z,3.78
2022-10-19T10:16:30.749Z,3.00
2022-10-19T10:19:01.828Z,2.53
2022-10-19T10:21:35.864Z,5.55
2022-10-19T10:24:12.391Z,2.85
2022-10-19T10:26:46.489Z,2.08
2022-10-19T10:29:23.098Z,7.32
2022-10-19T10:32:08.270Z,3.10
2022-10-19T10:34:49.799Z,4.50
2022-10-19T10:37:28.165Z,3.22
2022-10-19T10:40:00.387Z,2.72
2022-10-19T10:42:41.008Z,2.38
2022-10-19T10:45:20.999Z,2.22
2022-10-19T10:47:49.457Z,5.95
2022-10-19T10:50:26.080Z,2.17
2022-10-19T10:53:05.577Z,2.83
2022-10-19T10:55:34.018Z,2.17
2022-10-19T10:58:17.515Z,7.25
2022-10-19T11:00:45.517Z,11.57
2022-10-19T11:03:19.733Z,3.63
2022-10-19T11:06:08.427Z,7.40
2022-10-19T11:08:48.502Z,5.57
2022-10-19T11:11:21.216Z,4.50
2022-10-19T11:14:22.626Z,2.55
2022-10-19T11:16:52.810Z,2.45
2022-10-19T11:19:27.455Z,4.90
2022-10-19T11:22:10.315Z,3.35
2022-10-19T11:24:48.600Z,5.50
2022-10-19T11:27:56.103Z,6.60
2022-10-19T11:30:25.192Z,4.93
2022-10-19T11:33:36.791Z,6.55
2022-10-19T11:36:23.682Z,7.70
2022-10-19T11:39:02.972Z,4.80
2022-10-19T11:41:45.690Z,5.78
2022-10-19T11:44:19.349Z,2.50
2022-10-19T11:47:05.164Z,7.63
2022-10-19T11:49:42.578Z,5.03
2022-10-19T11:52:19.602Z,4.15
2022-10-19T11:55:28.675Z,7.47
2022-10-19T11:58:17.861Z,5.10
2022-10-19T12:00:59.187Z,4.65
2022-10-19T12:03:57.625Z,5.25
2022-10-19T12:06:34.308Z,2.63
2022-10-19T12:09:10.576Z,4.55
2022-10-19T12:12:09.004Z,3.72
2022-10-19T12:14:40.814Z,2.92
2022-10-19T12:17:30.772Z,5.40
2022-10-19T12:20:04.657Z,4.03
2022-10-19T12:22:34.299Z,2.25
2022-10-19T12:25:02.351Z,6.85
2022-10-19T12:27:38.489Z,4.68
2022-10-19T12:30:15.400Z,7.82
2022-10-19T12:32:58.447Z,4.90
2022-10-19T12:35:38.707Z,4.50
2022-10-19T12:38:27.183Z,1.15
2022-10-19T12:41:08.702Z,6.40
2022-10-19T12:43:46.403Z,4.95
2022-10-19T12:46:26.482Z,4.15
2022-10-19T12:49:30.617Z,3.22
2022-10-19T12:52:00.693Z,0.95
2022-10-19T12:54:36.968Z,3.10
2022-10-19T12:57:22.825Z,5.07
2022-10-19T13:00:00.751Z,2.92
2022-10-19T13:05:06.286Z,2.78
2022-10-19T13:07:35.959Z,5.05
2022-10-19T13:10:18.729Z,6.53
2022-10-19T13:12:47.833Z,3.00
2022-10-19T13:15:36.696Z,2.38
2022-10-19T13:18:16.978Z,7.32
2022-10-19T13:20:53.839Z,8.25
2022-10-19T13:23:26.965Z,5.88
2022-10-19T13:26:32.010Z,5.32
2022-10-19T13:29:00.609Z,3.80
2022-10-19T13:31:30.566Z,2.60
2022-10-19T13:33:58.354Z,2.35
2022-10-19T13:36:26.289Z,2.45
2022-10-19T13:38:59.667Z,1.85
2022-10-19T13:41:44.440Z,2.85
2022-10-19T13:44:16.161Z,1.73
2022-10-19T13:47:02.465Z,3.72
2022-10-19T13:49:48.521Z,3.58
2022-10-19T13:52:30.604Z,4.82
2022-10-19T13:55:28.675Z,2.20
2022-10-19T13:58:22.491Z,3.15
2022-10-19T14:01:14.173Z,3.35
2022-10-19T14:04:04.116Z,3.78
2022-10-19T14:06:54.519Z,5.28
2022-10-19T14:09:28.540Z,2.40
2022-10-19T14:12:09.012Z,5.30
2022-10-19T14:14:43.109Z,6.00
2022-10-19T14:17:24.757Z,4.05
2022-10-19T14:19:55.427Z,3.75
2022-10-19T14:22:27.537Z,3.88
2022-10-19T14:25:01.484Z,6.95
2022-10-19T14:27:30.758Z,4.88
2022-10-19T14:29:58.420Z,4.70
2022-10-19T14:32:28.692Z,7.45
2022-10-19T14:37:32.863Z,4.13
2022-10-19T14:40:28.119Z,3.10
2022-10-19T14:42:57.880Z,3.47
2022-10-19T14:45:28.650Z,8.20
2022-10-19T14:48:05.213Z,3.67
2022-10-19T14:50:55.928Z,3.87
2022-10-19T14:53:47.709Z,12.48
2022-10-19T14:56:24.484Z,10.73
2022-10-19T14:59:14.674Z,7.43
2022-10-19T15:01:49.344Z,6.17
2022-10-19T15:04:26.641Z,3.93
2022-10-19T15:06:55.314Z,2.83
2022-10-19T15:09:36.977Z,3.73
2022-10-19T15:12:20.129Z,8.07
2022-10-19T15:14:48.706Z,6.53
2022-10-19T15:17:28.537Z,5.57
2022-10-19T15:20:00.213Z,11.63
2022-10-19T15:22:34.024Z,9.90
2022-10-19T15:25:07.978Z,10.37
2022-10-19T15:27:37.512Z,29.97
2022-10-19T15:30:21.222Z,22.93
2022-10-19T15:33:02.086Z,11.63
2022-10-19T15:35:31.013Z,5.27
2022-10-19T15:38:11.724Z,7.60
2022-10-19T15:40:42.000Z,13.30
2022-10-19T15:43:31.133Z,21.03
2022-10-19T15:46:13.515Z,20.33
2022-10-19T15:48:41.461Z,20.07
2022-10-19T15:51:27.168Z,23.67
2022-10-19T15:54:17.205Z,25.83
2022-10-19T15:56:46.935Z,24.20
2022-10-19T15:59:20.467Z,36.73
2022-10-19T16:01:53.674Z,23.10
2022-10-19T16:04:22.286Z,55.10
2022-10-19T16:06:49.667Z,74.43
2022-10-19T16:09:21.853Z,67.97
2022-10-19T16:11:50.425Z,57.57
2022-10-19T16:16:51.079Z,59.20
2022-10-19T16:19:18.358Z,59.83
2022-10-19T16:21:50.105Z,67.43
2022-10-19T16:24:17.617Z,87.53
2022-10-19T16:26:45.046Z,77.73
2022-10-19T16:29:12.806Z,72.47
2022-10-19T16:31:40.469Z,81.43
2022-10-19T16:34:09.015Z,82.63
2022-10-19T16:36:37.636Z,91.70
2022-10-19T16:39:05.026Z,83.83
2022-10-19T16:41:32.692Z,102.83
2022-10-19T16:44:00.110Z,101.17
2022-10-19T16:46:27.987Z,77.07
2022-10-19T16:48:55.254Z,82.07
2022-10-19T16:51:30.921Z,65.83
2022-10-19T16:53:59.115Z,40.90
2022-10-19T16:56:29.232Z,33.63
2022-10-19T16:59:00.120Z,31.27
2022-10-19T17:01:28.379Z,35.33
2022-10-19T17:03:56.374Z,42.30
2022-10-19T17:06:24.834Z,45.40
2022-10-19T17:09:29.773Z,37.87
2022-10-19T17:11:42.475Z,44.43
2022-10-19T17:14:12.536Z,46.40
2022-10-19T17:16:40.811Z,44.80
2022-10-19T17:19:09.156Z,48.97
2022-10-19T17:21:38.805Z,53.40
2022-10-19T17:24:08.509Z,45.27
2022-10-19T17:26:42.257Z,49.53
2022-10-19T17:29:10.346Z,52.93
2022-10-19T17:31:39.796Z,61.77
2022-10-19T17:34:08.540Z,221.67
2022-10-19T17:36:41.824Z,175.00
2022-10-19T17:39:12.554Z,137.93
2022-10-19T17:41:40.540Z,83.73
2022-10-19T17:44:07.817Z,63.13
2022-10-19T17:46:35.895Z,67.27
2022-10-19T17:49:04.473Z,93.93
2022-10-19T17:51:34.107Z,102.00
2022-10-19T17:54:04.825Z,99.37
2022-10-19T17:56:32.809Z,94.37
2022-10-19T17:59:03.233Z,83.33
2022-10-19T18:01:31.455Z,64.67
2022-10-19T18:03:59.158Z,90.37
2022-10-19T18:06:31.878Z,82.97
2022-10-19T18:09:01.354Z,59.57
2022-10-19T18:11:32.381Z,50.13
2022-10-19T18:14:01.534Z,46.73
2022-10-19T18:16:40.874Z,47.70
2022-10-19T18:19:09.320Z,47.20
2022-10-19T18:21:42.744Z,73.57
2022-10-19T18:24:15.355Z,75.10
2022-10-19T18:26:43.573Z,56.63
2022-10-19T18:29:15.674Z,49.23
2022-10-19T18:31:43.621Z,41.33
2022-10-19T18:34:15.532Z,38.10
2022-10-19T18:36:44.187Z,34.67
2022-10-19T18:39:14.061Z,29.00
2022-10-19T18:41:42.099Z,26.93
2022-10-19T18:44:13.097Z,31.87
2022-10-19T18:46:41.391Z,28.07
2022-10-19T18:49:09.499Z,26.93
2022-10-19T18:51:37.830Z,25.07
2022-10-19T18:54:06.061Z,27.47
2022-10-19T18:56:36.641Z,25.03
2022-10-19T18:59:05.338Z,24.13
2022-10-19T19:01:33.433Z,21.43
2022-10-19T19:04:07.172Z,23.23
2022-10-19T19:06:36.393Z,19.27
2022-10-19T19:09:08.058Z,20.27
2022-10-19T19:11:38.602Z,18.23
2022-10-19T19:14:11.878Z,17.70
2022-10-19T19:16:41.060Z,12.33
2022-10-19T19:19:12.904Z,15.97
2022-10-19T19:21:44.240Z,10.17
2022-10-19T19:24:15.525Z,17.43
2022-10-19T19:26:48.553Z,14.00
2022-10-19T19:29:16.983Z,16.83
2022-10-19T19:31:45.374Z,12.30
2022-10-19T19:34:14.772Z,15.67
2022-10-19T19:36:47.678Z,12.57
2022-10-19T19:39:18.909Z,16.93
2022-10-19T19:41:47.503Z,16.43
2022-10-19T19:44:15.751Z,15.00
2022-10-19T19:46:43.823Z,15.80
2022-10-19T19:49:14.428Z,17.00
2022-10-19T19:51:43.161Z,19.97
2022-10-19T19:54:11.726Z,11.27
2022-10-19T19:56:40.314Z,17.67
2022-10-19T19:59:08.101Z,16.00
2022-10-19T20:01:38.103Z,21.00
2022-10-19T20:04:06.540Z,21.90
2022-10-19T20:06:36.273Z,15.73
2022-10-19T20:09:04.930Z,18.20
2022-10-19T20:11:33.013Z,13.33
2022-10-19T20:14:00.789Z,13.33
2022-10-19T20:16:32.057Z,9.87
2022-10-19T20:19:04.995Z,15.47
2022-10-19T20:21:33.827Z,13.37
2022-10-19T20:24:01.966Z,14.60
2022-10-19T20:26:30.439Z,11.67
2022-10-19T20:28:58.240Z,9.67
2022-10-19T20:31:26.151Z,9.93
2022-10-19T20:33:54.068Z,17.27
2022-10-19T20:36:24.281Z,10.87
2022-10-19T20:38:54.391Z,11.10
2022-10-19T20:41:24.366Z,12.43
2022-10-19T20:43:53.822Z,9.37
2022-10-19T20:46:24.815Z,8.63
2022-10-19T20:48:52.736Z,10.57
2022-10-19T20:51:30.637Z,15.87
2022-10-19T20:54:02.117Z,14.57
2022-10-19T20:56:35.335Z,10.57
2022-10-19T20:59:09.143Z,9.57
2022-10-19T21:01:38.389Z,10.50
2022-10-19T21:04:07.691Z,14.43
2022-10-19T21:06:39.445Z,13.47
2022-10-19T21:09:07.323Z,21.37
2022-10-19T21:11:37.381Z,11.50
2022-10-19T21:14:07.789Z,7.77
2022-10-19T21:16:37.825Z,11.03
2022-10-19T21:19:08.623Z,9.30
2022-10-19T21:21:41.516Z,7.90
2022-10-19T21:24:12.982Z,7.87
2022-10-19T21:26:41.105Z,8.27
2022-10-19T21:29:09.862Z,8.10
2022-10-19T21:31:42.150Z,10.77
2022-10-19T21:34:20.223Z,8.57
2022-10-19T21:36:48.520Z,11.10
2022-10-19T21:39:16.312Z,10.77
2022-10-19T21:41:44.233Z,9.10
2022-10-19T21:44:11.873Z,12.07
2022-10-19T21:46:40.250Z,17.37
2022-10-19T21:49:07.820Z,15.07
2022-10-19T21:51:36.292Z,15.60
2022-10-19T21:54:05.953Z,20.20
2022-10-19T21:56:34.125Z,16.83
2022-10-19T21:59:01.751Z,18.50
2022-10-19T22:01:30.442Z,14.00
2022-10-19T22:03:59.077Z,14.03
2022-10-19T22:06:28.953Z,10.33
2022-10-19T22:08:57.350Z,12.93
2022-10-19T22:11:25.734Z,18.23
2022-10-19T22:13:58.103Z,20.67
2022-10-19T22:16:27.229Z,41.07
2022-10-19T22:18:55.473Z,41.73
2022-10-19T22:21:26.539Z,34.27
2022-10-19T22:23:56.153Z,43.30
2022-10-19T22:26:45.014Z,49.80
2022-10-19T22:29:12.310Z,34.73
2022-10-19T22:31:39.852Z,27.37
2022-10-19T22:34:10.103Z,30.73
2022-10-19T22:36:38.123Z,41.27
2022-10-19T22:39:05.989Z,44.80
2022-10-19T22:41:33.296Z,48.57
2022-10-19T22:44:01.086Z,40.37
2022-10-19T22:46:28.884Z,49.53
2022-10-19T22:48:56.583Z,48.03
2022-10-19T22:51:24.091Z,48.97
2022-10-19T22:53:51.639Z,43.53
2022-10-19T22:56:19.466Z,33.40
2022-10-19T22:58:47.144Z,34.03
2022-10-19T23:01:16.937Z,39.60
2022-10-19T23:03:45.079Z,38.83
2022-10-19T23:06:14.822Z,34.67
2022-10-19T23:08:43.560Z,32.10
2022-10-19T23:11:11.877Z,33.33
2022-10-19T23:13:39.767Z,27.67
2022-10-19T23:16:07.995Z,37.97
2022-10-19T23:18:37.625Z,30.33
2022-10-19T23:21:08.126Z,28.90
2022-10-19T23:23:37.093Z,24.10
2022-10-19T23:26:13.424Z,28.30
2022-10-19T23:28:42.467Z,29.60
2022-10-19T23:31:16.429Z,20.80
2022-10-19T23:33:44.173Z,21.33
2022-10-19T23:36:17.543Z,18.60
2022-10-19T23:38:46.334Z,20.17
2022-10-19T23:41:14.368Z,20.00
2022-10-19T23:43:42.006Z,23.27
2022-10-19T23:46:09.785Z,16.13
2022-10-19T23:48:37.734Z,14.40
2022-10-19T23:51:08.024Z,16.13
2022-10-19T23:53:40.769Z,18.53
2022-10-19T23:56:14.809Z,18.33
2022-10-19T23:58:42.407Z,17.93
